sensor_id;sensor_type;location;lat;lon;timestamp;P1;durP1;ratioP1;P2;durP2;ratioP2
75021;SDS011;63583;49.976;20.182;2024-01-15T00:00:46;10.02;;;5.05;;
75021;SDS011;63583;49.976;20.182;2024-01-15T00:03:31;13.70;;;5.75;;
75021;SDS011;63583;49.976;20.182;2024-01-15T00:05:58;8.52;;;4.30;;
75021;SDS011;63583;49.976;20.182;2024-01-15T00:08:23;9.48;;;4.50;;
75021;SDS011;63583;49.976;20.182;2024-01-15T00:10:49;7.15;;;3.85;;
75021;SDS011;63583;49.976;20.182;2024-01-15T00:13:15;8.75;;;3.97;;
75021;SDS011;63583;49.976;20.182;2024-01-15T00:15:41;8.85;;;3.85;;
75021;SDS011;63583;49.976;20.182;2024-01-15T00:18:06;8.65;;;4.13;;
75021;SDS011;63583;49.976;20.182;2024-01-15T00:20:32;8.30;;;4.05;;
75021;SDS011;63583;49.976;20.182;2024-01-15T00:22:58;8.32;;;3.75;;
75021;SDS011;63583;49.976;20.182;2024-01-15T00:25:24;8.48;;;4.13;;
75021;SDS011;63583;49.976;20.182;2024-01-15T00:27:50;10.15;;;4.15;;
75021;SDS011;63583;49.976;20.182;2024-01-15T00:30:15;8.80;;;4.18;;
75021;SDS011;63583;49.976;20.182;2024-01-15T00:32:41;6.72;;;3.75;;
75021;SDS011;63583;49.976;20.182;2024-01-15T00:35:07;6.78;;;3.72;;
75021;SDS011;63583;49.976;20.182;2024-01-15T00:37:33;7.80;;;3.88;;
75021;SDS011;63583;49.976;20.182;2024-01-15T00:39:59;8.43;;;4.28;;
75021;SDS011;63583;49.976;20.182;2024-01-15T00:42:25;7.75;;;3.85;;
75021;SDS011;63583;49.976;20.182;2024-01-15T00:44:50;6.63;;;3.50;;
75021;SDS011;63583;49.976;20.182;2024-01-15T00:47:17;8.10;;;4.40;;
75021;SDS011;63583;49.976;20.182;2024-01-15T00:49:44;7.38;;;4.00;;
75021;SDS011;63583;49.976;20.182;2024-01-15T00:52:10;8.10;;;3.58;;
75021;SDS011;63583;49.976;20.182;2024-01-15T00:54:36;8.10;;;3.90;;
75021;SDS011;63583;49.976;20.182;2024-01-15T00:57:03;7.93;;;3.78;;
75021;SDS011;63583;49.976;20.182;2024-01-15T00:59:29;7.25;;;3.50;;
75021;SDS011;63583;49.976;20.182;2024-01-15T01:01:55;8.00;;;3.35;;
75021;SDS011;63583;49.976;20.182;2024-01-15T01:04:21;6.78;;;3.88;;
75021;SDS011;63583;49.976;20.182;2024-01-15T01:06:46;7.40;;;3.28;;
75021;SDS011;63583;49.976;20.182;2024-01-15T01:09:12;9.27;;;3.70;;
75021;SDS011;63583;49.976;20.182;2024-01-15T01:11:38;6.32;;;3.63;;
75021;SDS011;63583;49.976;20.182;2024-01-15T01:14:04;7.03;;;3.40;;
75021;SDS011;63583;49.976;20.182;2024-01-15T01:16:30;7.30;;;3.28;;
75021;SDS011;63583;49.976;20.182;2024-01-15T01:18:57;7.53;;;3.55;;
75021;SDS011;63583;49.976;20.182;2024-01-15T01:21:22;6.20;;;3.30;;
75021;SDS011;63583;49.976;20.182;2024-01-15T01:23:48;5.65;;;2.88;;
75021;SDS011;63583;49.976;20.182;2024-01-15T01:26:17;8.05;;;3.30;;
75021;SDS011;63583;49.976;20.182;2024-01-15T01:28:43;7.03;;;3.25;;
75021;SDS011;63583;49.976;20.182;2024-01-15T01:31:08;6.22;;;3.20;;
75021;SDS011;63583;49.976;20.182;2024-01-15T01:33:34;6.30;;;3.50;;
75021;SDS011;63583;49.976;20.182;2024-01-15T01:36:00;7.35;;;2.90;;
75021;SDS011;63583;49.976;20.182;2024-01-15T01:38:26;7.25;;;3.40;;
75021;SDS011;63583;49.976;20.182;2024-01-15T01:40:52;7.28;;;3.53;;
75021;SDS011;63583;49.976;20.182;2024-01-15T01:43:18;7.03;;;3.25;;
75021;SDS011;63583;49.976;20.182;2024-01-15T01:45:44;6.65;;;3.15;;
75021;SDS011;63583;49.976;20.182;2024-01-15T01:48:10;8.07;;;2.95;;
75021;SDS011;63583;49.976;20.182;2024-01-15T01:50:36;5.35;;;2.70;;
75021;SDS011;63583;49.976;20.182;2024-01-15T01:53:03;4.97;;;2.58;;
75021;SDS011;63583;49.976;20.182;2024-01-15T01:55:29;5.70;;;3.17;;
75021;SDS011;63583;49.976;20.182;2024-01-15T01:57:58;6.63;;;3.28;;
75021;SDS011;63583;49.976;20.182;2024-01-15T02:00:24;5.43;;;2.45;;
75021;SDS011;63583;49.976;20.182;2024-01-15T02:02:50;5.80;;;2.47;;
75021;SDS011;63583;49.976;20.182;2024-01-15T02:05:18;5.43;;;2.67;;
75021;SDS011;63583;49.976;20.182;2024-01-15T02:07:44;5.80;;;2.53;;
75021;SDS011;63583;49.976;20.182;2024-01-15T02:10:10;5.32;;;2.33;;
75021;SDS011;63583;49.976;20.182;2024-01-15T02:12:36;4.20;;;2.10;;
75021;SDS011;63583;49.976;20.182;2024-01-15T02:15:02;4.53;;;1.92;;
75021;SDS011;63583;49.976;20.182;2024-01-15T02:17:28;4.55;;;2.40;;
75021;SDS011;63583;49.976;20.182;2024-01-15T02:19:53;3.40;;;1.85;;
75021;SDS011;63583;49.976;20.182;2024-01-15T02:22:19;3.70;;;1.98;;
75021;SDS011;63583;49.976;20.182;2024-01-15T02:24:45;3.90;;;1.88;;
75021;SDS011;63583;49.976;20.182;2024-01-15T02:27:11;4.18;;;1.80;;
75021;SDS011;63583;49.976;20.182;2024-01-15T02:29:37;3.55;;;1.90;;
75021;SDS011;63583;49.976;20.182;2024-01-15T02:32:06;4.72;;;1.75;;
75021;SDS011;63583;49.976;20.182;2024-01-15T02:34:33;3.65;;;2.20;;
75021;SDS011;63583;49.976;20.182;2024-01-15T02:36:59;4.72;;;2.10;;
75021;SDS011;63583;49.976;20.182;2024-01-15T02:39:25;4.32;;;1.90;;
75021;SDS011;63583;49.976;20.182;2024-01-15T02:41:51;4.65;;;2.00;;
75021;SDS011;63583;49.976;20.182;2024-01-15T02:44:16;4.82;;;2.20;;
75021;SDS011;63583;49.976;20.182;2024-01-15T02:46:42;5.90;;;1.58;;
75021;SDS011;63583;49.976;20.182;2024-01-15T02:49:08;4.03;;;1.90;;
75021;SDS011;63583;49.976;20.182;2024-01-15T02:51:34;3.70;;;1.75;;
75021;SDS011;63583;49.976;20.182;2024-01-15T02:53:59;4.40;;;1.73;;
75021;SDS011;63583;49.976;20.182;2024-01-15T02:56:25;4.35;;;2.40;;
75021;SDS011;63583;49.976;20.182;2024-01-15T02:58:51;3.83;;;1.80;;
75021;SDS011;63583;49.976;20.182;2024-01-15T03:01:18;4.75;;;1.85;;
75021;SDS011;63583;49.976;20.182;2024-01-15T03:03:44;3.72;;;1.77;;
75021;SDS011;63583;49.976;20.182;2024-01-15T03:06:10;4.28;;;1.65;;
75021;SDS011;63583;49.976;20.182;2024-01-15T03:08:36;2.78;;;1.67;;
75021;SDS011;63583;49.976;20.182;2024-01-15T03:11:02;3.38;;;1.30;;
75021;SDS011;63583;49.976;20.182;2024-01-15T03:13:28;3.85;;;1.40;;
75021;SDS011;63583;49.976;20.182;2024-01-15T03:15:53;4.30;;;1.60;;
75021;SDS011;63583;49.976;20.182;2024-01-15T03:18:20;2.92;;;1.23;;
75021;SDS011;63583;49.976;20.182;2024-01-15T03:20:46;3.45;;;1.10;;
75021;SDS011;63583;49.976;20.182;2024-01-15T03:23:11;3.95;;;1.20;;
75021;SDS011;63583;49.976;20.182;2024-01-15T03:25:37;2.25;;;1.10;;
75021;SDS011;63583;49.976;20.182;2024-01-15T03:28:03;2.30;;;1.20;;
75021;SDS011;63583;49.976;20.182;2024-01-15T03:30:29;3.17;;;1.00;;
75021;SDS011;63583;49.976;20.182;2024-01-15T03:32:54;2.38;;;0.95;;
75021;SDS011;63583;49.976;20.182;2024-01-15T03:35:20;3.35;;;1.10;;
75021;SDS011;63583;49.976;20.182;2024-01-15T03:37:46;2.70;;;1.30;;
75021;SDS011;63583;49.976;20.182;2024-01-15T03:40:12;2.70;;;1.15;;
75021;SDS011;63583;49.976;20.182;2024-01-15T03:42:37;3.00;;;1.02;;
75021;SDS011;63583;49.976;20.182;2024-01-15T03:45:03;2.65;;;1.38;;
75021;SDS011;63583;49.976;20.182;2024-01-15T03:47:29;2.35;;;1.20;;
75021;SDS011;63583;49.976;20.182;2024-01-15T03:49:55;2.20;;;0.95;;
75021;SDS011;63583;49.976;20.182;2024-01-15T03:52:21;2.95;;;1.00;;
75021;SDS011;63583;49.976;20.182;2024-01-15T03:54:47;1.73;;;0.90;;
75021;SDS011;63583;49.976;20.182;2024-01-15T03:57:12;1.52;;;0.90;;
75021;SDS011;63583;49.976;20.182;2024-01-15T03:59:40;2.05;;;0.90;;
75021;SDS011;63583;49.976;20.182;2024-01-15T04:02:06;2.40;;;1.23;;
75021;SDS011;63583;49.976;20.182;2024-01-15T04:04:32;2.10;;;1.20;;
75021;SDS011;63583;49.976;20.182;2024-01-15T04:06:58;3.47;;;1.30;;
75021;SDS011;63583;49.976;20.182;2024-01-15T04:09:24;2.28;;;1.15;;
75021;SDS011;63583;49.976;20.182;2024-01-15T04:11:49;3.33;;;1.40;;
75021;SDS011;63583;49.976;20.182;2024-01-15T04:14:15;2.50;;;1.30;;
75021;SDS011;63583;49.976;20.182;2024-01-15T04:16:41;2.67;;;1.20;;
75021;SDS011;63583;49.976;20.182;2024-01-15T04:19:07;2.60;;;1.15;;
75021;SDS011;63583;49.976;20.182;2024-01-15T04:21:32;2.30;;;1.17;;
75021;SDS011;63583;49.976;20.182;2024-01-15T04:23:58;2.65;;;1.05;;
75021;SDS011;63583;49.976;20.182;2024-01-15T04:26:24;3.65;;;1.70;;
75021;SDS011;63583;49.976;20.182;2024-01-15T04:28:50;2.60;;;1.40;;
75021;SDS011;63583;49.976;20.182;2024-01-15T04:31:22;3.20;;;1.20;;
75021;SDS011;63583;49.976;20.182;2024-01-15T04:33:49;3.60;;;1.48;;
75021;SDS011;63583;49.976;20.182;2024-01-15T04:36:15;4.43;;;2.08;;
75021;SDS011;63583;49.976;20.182;2024-01-15T04:38:40;4.85;;;2.22;;
75021;SDS011;63583;49.976;20.182;2024-01-15T04:41:09;6.60;;;3.10;;
75021;SDS011;63583;49.976;20.182;2024-01-15T04:43:36;4.65;;;2.25;;
75021;SDS011;63583;49.976;20.182;2024-01-15T04:46:02;4.78;;;2.00;;
75021;SDS011;63583;49.976;20.182;2024-01-15T04:48:28;3.85;;;1.90;;
75021;SDS011;63583;49.976;20.182;2024-01-15T04:50:54;6.55;;;2.47;;
75021;SDS011;63583;49.976;20.182;2024-01-15T04:53:20;6.82;;;2.78;;
75021;SDS011;63583;49.976;20.182;2024-01-15T04:55:46;7.40;;;2.90;;
75021;SDS011;63583;49.976;20.182;2024-01-15T04:58:12;3.80;;;2.10;;
75021;SDS011;63583;49.976;20.182;2024-01-15T05:00:38;5.68;;;2.10;;
75021;SDS011;63583;49.976;20.182;2024-01-15T05:03:04;5.60;;;1.95;;
75021;SDS011;63583;49.976;20.182;2024-01-15T05:05:30;6.40;;;2.63;;
75021;SDS011;63583;49.976;20.182;2024-01-15T05:07:56;6.38;;;2.65;;
75021;SDS011;63583;49.976;20.182;2024-01-15T05:10:22;6.15;;;2.38;;
75021;SDS011;63583;49.976;20.182;2024-01-15T05:12:47;2.80;;;1.45;;
75021;SDS011;63583;49.976;20.182;2024-01-15T05:15:13;4.95;;;2.85;;
75021;SDS011;63583;49.976;20.182;2024-01-15T05:17:39;4.78;;;2.08;;
75021;SDS011;63583;49.976;20.182;2024-01-15T05:20:05;8.93;;;2.90;;
75021;SDS011;63583;49.976;20.182;2024-01-15T05:22:31;4.75;;;2.60;;
75021;SDS011;63583;49.976;20.182;2024-01-15T05:24:57;5.65;;;2.15;;
75021;SDS011;63583;49.976;20.182;2024-01-15T05:27:23;6.28;;;2.60;;
75021;SDS011;63583;49.976;20.182;2024-01-15T05:29:48;7.40;;;2.55;;
75021;SDS011;63583;49.976;20.182;2024-01-15T05:32:14;6.20;;;2.45;;
75021;SDS011;63583;49.976;20.182;2024-01-15T05:34:40;4.78;;;2.25;;
75021;SDS011;63583;49.976;20.182;2024-01-15T05:37:06;5.32;;;2.15;;
75021;SDS011;63583;49.976;20.182;2024-01-15T05:39:31;4.15;;;2.00;;
75021;SDS011;63583;49.976;20.182;2024-01-15T05:41:58;4.43;;;1.92;;
75021;SDS011;63583;49.976;20.182;2024-01-15T05:44:23;5.05;;;1.75;;
75021;SDS011;63583;49.976;20.182;2024-01-15T05:46:49;5.75;;;2.55;;
75021;SDS011;63583;49.976;20.182;2024-01-15T05:49:15;2.92;;;1.73;;
75021;SDS011;63583;49.976;20.182;2024-01-15T05:51:41;3.53;;;1.98;;
75021;SDS011;63583;49.976;20.182;2024-01-15T05:54:07;6.20;;;1.90;;
75021;SDS011;63583;49.976;20.182;2024-01-15T05:56:33;10.05;;;2.80;;
75021;SDS011;63583;49.976;20.182;2024-01-15T05:58:58;4.65;;;2.00;;
75021;SDS011;63583;49.976;20.182;2024-01-15T06:01:24;6.05;;;2.35;;
75021;SDS011;63583;49.976;20.182;2024-01-15T06:03:50;4.35;;;1.70;;
75021;SDS011;63583;49.976;20.182;2024-01-15T06:06:16;3.92;;;1.60;;
75021;SDS011;63583;49.976;20.182;2024-01-15T06:08:42;4.95;;;1.70;;
75021;SDS011;63583;49.976;20.182;2024-01-15T06:11:08;4.78;;;2.33;;
75021;SDS011;63583;49.976;20.182;2024-01-15T06:13:33;4.57;;;1.92;;
75021;SDS011;63583;49.976;20.182;2024-01-15T06:15:59;5.00;;;2.17;;
75021;SDS011;63583;49.976;20.182;2024-01-15T06:18:25;3.78;;;1.50;;
75021;SDS011;63583;49.976;20.182;2024-01-15T06:20:51;3.75;;;1.73;;
75021;SDS011;63583;49.976;20.182;2024-01-15T06:23:16;3.45;;;1.60;;
75021;SDS011;63583;49.976;20.182;2024-01-15T06:25:42;4.95;;;2.00;;
75021;SDS011;63583;49.976;20.182;2024-01-15T06:28:08;3.95;;;1.50;;
75021;SDS011;63583;49.976;20.182;2024-01-15T06:30:35;4.85;;;1.95;;
75021;SDS011;63583;49.976;20.182;2024-01-15T06:33:00;2.30;;;1.40;;
75021;SDS011;63583;49.976;20.182;2024-01-15T06:35:27;2.90;;;1.63;;
75021;SDS011;63583;49.976;20.182;2024-01-15T06:37:52;3.97;;;1.45;;
75021;SDS011;63583;49.976;20.182;2024-01-15T06:40:18;4.82;;;2.10;;
75021;SDS011;63583;49.976;20.182;2024-01-15T06:42:44;4.13;;;1.70;;
75021;SDS011;63583;49.976;20.182;2024-01-15T06:45:10;3.75;;;1.80;;
75021;SDS011;63583;49.976;20.182;2024-01-15T06:47:35;3.13;;;1.42;;
75021;SDS011;63583;49.976;20.182;2024-01-15T06:50:01;3.40;;;1.92;;
75021;SDS011;63583;49.976;20.182;2024-01-15T06:52:27;4.00;;;1.83;;
75021;SDS011;63583;49.976;20.182;2024-01-15T06:54:53;4.47;;;1.98;;
75021;SDS011;63583;49.976;20.182;2024-01-15T06:57:19;3.92;;;2.17;;
75021;SDS011;63583;49.976;20.182;2024-01-15T06:59:46;4.10;;;1.83;;
75021;SDS011;63583;49.976;20.182;2024-01-15T07:02:11;4.78;;;2.00;;
75021;SDS011;63583;49.976;20.182;2024-01-15T07:04:37;4.55;;;2.13;;
75021;SDS011;63583;49.976;20.182;2024-01-15T07:07:03;3.47;;;2.03;;
75021;SDS011;63583;49.976;20.182;2024-01-15T07:09:29;3.60;;;1.90;;
75021;SDS011;63583;49.976;20.182;2024-01-15T07:11:55;5.07;;;2.28;;
75021;SDS011;63583;49.976;20.182;2024-01-15T07:14:23;4.63;;;2.03;;
75021;SDS011;63583;49.976;20.182;2024-01-15T07:16:48;4.70;;;2.05;;
75021;SDS011;63583;49.976;20.182;2024-01-15T07:19:15;4.43;;;2.13;;
75021;SDS011;63583;49.976;20.182;2024-01-15T07:21:40;5.22;;;2.00;;
75021;SDS011;63583;49.976;20.182;2024-01-15T07:24:08;4.78;;;2.45;;
75021;SDS011;63583;49.976;20.182;2024-01-15T07:26:35;3.47;;;1.60;;
75021;SDS011;63583;49.976;20.182;2024-01-15T07:29:00;5.55;;;2.45;;
75021;SDS011;63583;49.976;20.182;2024-01-15T07:31:26;4.90;;;2.28;;
75021;SDS011;63583;49.976;20.182;2024-01-15T07:33:52;5.38;;;2.60;;
75021;SDS011;63583;49.976;20.182;2024-01-15T07:36:20;4.70;;;2.05;;
75021;SDS011;63583;49.976;20.182;2024-01-15T07:38:47;4.78;;;2.33;;
75021;SDS011;63583;49.976;20.182;2024-01-15T07:41:13;6.13;;;2.35;;
75021;SDS011;63583;49.976;20.182;2024-01-15T07:43:39;5.03;;;2.55;;
75021;SDS011;63583;49.976;20.182;2024-01-15T07:46:05;3.38;;;2.00;;
75021;SDS011;63583;49.976;20.182;2024-01-15T07:48:32;5.38;;;2.75;;
75021;SDS011;63583;49.976;20.182;2024-01-15T07:51:00;5.97;;;2.72;;
75021;SDS011;63583;49.976;20.182;2024-01-15T07:53:26;6.97;;;2.72;;
75021;SDS011;63583;49.976;20.182;2024-01-15T07:55:53;4.13;;;2.17;;
75021;SDS011;63583;49.976;20.182;2024-01-15T07:58:26;4.85;;;2.60;;
75021;SDS011;63583;49.976;20.182;2024-01-15T08:00:52;6.60;;;2.75;;
75021;SDS011;63583;49.976;20.182;2024-01-15T08:03:18;6.72;;;2.72;;
75021;SDS011;63583;49.976;20.182;2024-01-15T08:05:44;7.10;;;3.17;;
75021;SDS011;63583;49.976;20.182;2024-01-15T08:08:10;6.07;;;3.10;;
75021;SDS011;63583;49.976;20.182;2024-01-15T08:10:36;6.43;;;3.30;;
75021;SDS011;63583;49.976;20.182;2024-01-15T08:13:03;7.15;;;3.25;;
75021;SDS011;63583;49.976;20.182;2024-01-15T08:15:29;4.32;;;2.42;;
75021;SDS011;63583;49.976;20.182;2024-01-15T08:17:54;7.05;;;3.13;;
75021;SDS011;63583;49.976;20.182;2024-01-15T08:20:20;6.63;;;3.15;;
75021;SDS011;63583;49.976;20.182;2024-01-15T08:22:47;6.53;;;3.22;;
75021;SDS011;63583;49.976;20.182;2024-01-15T08:25:14;8.45;;;3.33;;
75021;SDS011;63583;49.976;20.182;2024-01-15T08:27:40;7.20;;;3.20;;
75021;SDS011;63583;49.976;20.182;2024-01-15T08:30:09;6.80;;;2.95;;
75021;SDS011;63583;49.976;20.182;2024-01-15T08:32:36;5.70;;;3.15;;
75021;SDS011;63583;49.976;20.182;2024-01-15T08:35:06;7.45;;;3.78;;
75021;SDS011;63583;49.976;20.182;2024-01-15T08:37:41;7.13;;;3.22;;
75021;SDS011;63583;49.976;20.182;2024-01-15T08:40:07;8.32;;;3.50;;
75021;SDS011;63583;49.976;20.182;2024-01-15T08:42:34;5.63;;;3.15;;
75021;SDS011;63583;49.976;20.182;2024-01-15T08:45:00;6.72;;;3.42;;
75021;SDS011;63583;49.976;20.182;2024-01-15T08:47:28;7.28;;;4.25;;
75021;SDS011;63583;49.976;20.182;2024-01-15T08:49:54;9.30;;;4.30;;
75021;SDS011;63583;49.976;20.182;2024-01-15T08:52:20;9.73;;;4.15;;
75021;SDS011;63583;49.976;20.182;2024-01-15T08:54:46;8.02;;;4.00;;
75021;SDS011;63583;49.976;20.182;2024-01-15T08:57:12;7.40;;;3.83;;
75021;SDS011;63583;49.976;20.182;2024-01-15T08:59:38;10.38;;;4.63;;
75021;SDS011;63583;49.976;20.182;2024-01-15T09:02:05;9.35;;;4.43;;
75021;SDS011;63583;49.976;20.182;2024-01-15T09:04:31;10.77;;;4.95;;
75021;SDS011;63583;49.976;20.182;2024-01-15T09:06:56;8.07;;;4.28;;
75021;SDS011;63583;49.976;20.182;2024-01-15T09:09:22;10.45;;;4.38;;
75021;SDS011;63583;49.976;20.182;2024-01-15T09:11:48;9.30;;;4.38;;
75021;SDS011;63583;49.976;20.182;2024-01-15T09:14:14;8.70;;;4.45;;
75021;SDS011;63583;49.976;20.182;2024-01-15T09:16:48;10.07;;;4.57;;
75021;SDS011;63583;49.976;20.182;2024-01-15T09:19:13;11.68;;;4.78;;
75021;SDS011;63583;49.976;20.182;2024-01-15T09:21:41;9.95;;;4.93;;
75021;SDS011;63583;49.976;20.182;2024-01-15T09:24:07;10.10;;;4.63;;
75021;SDS011;63583;49.976;20.182;2024-01-15T09:26:36;8.38;;;4.53;;
75021;SDS011;63583;49.976;20.182;2024-01-15T09:29:01;9.65;;;5.50;;
75021;SDS011;63583;49.976;20.182;2024-01-15T09:31:28;7.97;;;4.10;;
75021;SDS011;63583;49.976;20.182;2024-01-15T09:33:55;5.55;;;3.15;;
75021;SDS011;63583;49.976;20.182;2024-01-15T09:36:22;8.88;;;4.30;;
75021;SDS011;63583;49.976;20.182;2024-01-15T09:38:48;11.00;;;4.30;;
75021;SDS011;63583;49.976;20.182;2024-01-15T09:41:16;9.02;;;4.43;;
75021;SDS011;63583;49.976;20.182;2024-01-15T09:43:42;9.57;;;4.47;;
75021;SDS011;63583;49.976;20.182;2024-01-15T09:46:10;9.10;;;4.75;;
75021;SDS011;63583;49.976;20.182;2024-01-15T09:48:37;8.38;;;4.38;;
75021;SDS011;63583;49.976;20.182;2024-01-15T09:51:04;7.30;;;3.88;;
75021;SDS011;63583;49.976;20.182;2024-01-15T09:53:31;7.47;;;3.60;;
75021;SDS011;63583;49.976;20.182;2024-01-15T09:55:58;8.30;;;4.05;;
75021;SDS011;63583;49.976;20.182;2024-01-15T09:58:25;7.22;;;3.75;;
75021;SDS011;63583;49.976;20.182;2024-01-15T10:00:51;9.93;;;3.83;;
75021;SDS011;63583;49.976;20.182;2024-01-15T10:03:17;7.25;;;3.80;;
75021;SDS011;63583;49.976;20.182;2024-01-15T10:05:43;8.45;;;4.38;;
75021;SDS011;63583;49.976;20.182;2024-01-15T10:08:09;7.25;;;4.13;;
75021;SDS011;63583;49.976;20.182;2024-01-15T10:10:36;8.07;;;4.00;;
75021;SDS011;63583;49.976;20.182;2024-01-15T10:13:03;8.20;;;3.97;;
75021;SDS011;63583;49.976;20.182;2024-01-15T10:15:33;7.53;;;4.18;;
75021;SDS011;63583;49.976;20.182;2024-01-15T10:18:02;7.80;;;4.03;;
75021;SDS011;63583;49.976;20.182;2024-01-15T10:20:28;8.77;;;4.85;;
75021;SDS011;63583;49.976;20.182;2024-01-15T10:22:54;9.10;;;5.07;;
75021;SDS011;63583;49.976;20.182;2024-01-15T10:25:21;8.85;;;4.13;;
75021;SDS011;63583;49.976;20.182;2024-01-15T10:28:00;7.85;;;4.30;;
75021;SDS011;63583;49.976;20.182;2024-01-15T10:30:27;8.27;;;4.35;;
75021;SDS011;63583;49.976;20.182;2024-01-15T10:35:28;9.70;;;4.00;;
75021;SDS011;63583;49.976;20.182;2024-01-15T10:37:55;11.75;;;5.28;;
75021;SDS011;63583;49.976;20.182;2024-01-15T10:40:21;9.73;;;5.25;;
75021;SDS011;63583;49.976;20.182;2024-01-15T10:42:47;7.80;;;4.38;;
75021;SDS011;63583;49.976;20.182;2024-01-15T10:45:13;9.93;;;4.82;;
75021;SDS011;63583;49.976;20.182;2024-01-15T10:47:40;7.40;;;4.50;;
75021;SDS011;63583;49.976;20.182;2024-01-15T10:50:06;11.98;;;4.88;;
75021;SDS011;63583;49.976;20.182;2024-01-15T10:52:34;11.50;;;5.00;;
75021;SDS011;63583;49.976;20.182;2024-01-15T10:55:01;11.13;;;4.95;;
75021;SDS011;63583;49.976;20.182;2024-01-15T10:57:28;11.77;;;5.22;;
75021;SDS011;63583;49.976;20.182;2024-01-15T10:59:55;13.30;;;5.93;;
75021;SDS011;63583;49.976;20.182;2024-01-15T11:02:21;8.25;;;4.38;;
75021;SDS011;63583;49.976;20.182;2024-01-15T11:04:47;11.23;;;4.80;;
75021;SDS011;63583;49.976;20.182;2024-01-15T11:07:13;8.00;;;4.35;;
75021;SDS011;63583;49.976;20.182;2024-01-15T11:09:39;12.65;;;5.70;;
75021;SDS011;63583;49.976;20.182;2024-01-15T11:14:41;9.15;;;6.18;;
75021;SDS011;63583;49.976;20.182;2024-01-15T11:17:10;16.33;;;10.85;;
75021;SDS011;63583;49.976;20.182;2024-01-15T11:22:11;15.95;;;11.65;;
75021;SDS011;63583;49.976;20.182;2024-01-15T11:25:02;10.50;;;6.63;;
75021;SDS011;63583;49.976;20.182;2024-01-15T11:30:17;11.13;;;5.70;;
75021;SDS011;63583;49.976;20.182;2024-01-15T11:32:45;10.82;;;5.32;;
75021;SDS011;63583;49.976;20.182;2024-01-15T11:35:14;12.25;;;6.10;;
75021;SDS011;63583;49.976;20.182;2024-01-15T11:40:22;15.20;;;8.82;;
75021;SDS011;63583;49.976;20.182;2024-01-15T11:43:09;11.63;;;6.45;;
75021;SDS011;63583;49.976;20.182;2024-01-15T11:45:36;10.32;;;5.70;;
75021;SDS011;63583;49.976;20.182;2024-01-15T11:48:11;8.18;;;4.22;;
75021;SDS011;63583;49.976;20.182;2024-01-15T11:50:40;8.20;;;3.95;;
75021;SDS011;63583;49.976;20.182;2024-01-15T11:53:12;5.97;;;3.20;;
75021;SDS011;63583;49.976;20.182;2024-01-15T11:55:42;5.28;;;2.92;;
75021;SDS011;63583;49.976;20.182;2024-01-15T11:58:10;6.97;;;2.78;;
75021;SDS011;63583;49.976;20.182;2024-01-15T12:00:42;7.53;;;3.60;;
75021;SDS011;63583;49.976;20.182;2024-01-15T12:03:10;4.88;;;2.85;;
75021;SDS011;63583;49.976;20.182;2024-01-15T12:05:37;7.88;;;3.72;;
75021;SDS011;63583;49.976;20.182;2024-01-15T12:08:03;7.07;;;3.42;;
75021;SDS011;63583;49.976;20.182;2024-01-15T12:10:38;9.73;;;4.00;;
75021;SDS011;63583;49.976;20.182;2024-01-15T12:13:15;8.07;;;4.15;;
75021;SDS011;63583;49.976;20.182;2024-01-15T12:15:43;9.15;;;4.28;;
75021;SDS011;63583;49.976;20.182;2024-01-15T12:18:16;8.55;;;4.95;;
75021;SDS011;63583;49.976;20.182;2024-01-15T12:20:45;7.60;;;4.75;;
75021;SDS011;63583;49.976;20.182;2024-01-15T12:23:14;10.75;;;5.20;;
75021;SDS011;63583;49.976;20.182;2024-01-15T12:25:41;11.57;;;5.65;;
75021;SDS011;63583;49.976;20.182;2024-01-15T12:28:07;7.18;;;4.18;;
75021;SDS011;63583;49.976;20.182;2024-01-15T12:30:38;7.97;;;3.67;;
75021;SDS011;63583;49.976;20.182;2024-01-15T12:33:06;7.30;;;3.50;;
75021;SDS011;63583;49.976;20.182;2024-01-15T12:35:34;7.28;;;3.03;;
75021;SDS011;63583;49.976;20.182;2024-01-15T12:38:00;7.20;;;3.65;;
75021;SDS011;63583;49.976;20.182;2024-01-15T12:40:30;7.95;;;3.58;;
75021;SDS011;63583;49.976;20.182;2024-01-15T12:42:58;6.63;;;3.45;;
75021;SDS011;63583;49.976;20.182;2024-01-15T12:45:25;6.93;;;3.20;;
75021;SDS011;63583;49.976;20.182;2024-01-15T12:47:51;5.82;;;2.83;;
75021;SDS011;63583;49.976;20.182;2024-01-15T12:50:18;6.28;;;2.72;;
75021;SDS011;63583;49.976;20.182;2024-01-15T12:52:44;8.02;;;3.67;;
75021;SDS011;63583;49.976;20.182;2024-01-15T12:55:10;7.03;;;3.55;;
75021;SDS011;63583;49.976;20.182;2024-01-15T12:57:38;5.65;;;2.78;;
75021;SDS011;63583;49.976;20.182;2024-01-15T13:00:05;8.07;;;3.78;;
75021;SDS011;63583;49.976;20.182;2024-01-15T13:02:33;24.25;;;9.98;;
75021;SDS011;63583;49.976;20.182;2024-01-15T13:04:59;23.33;;;9.60;;
75021;SDS011;63583;49.976;20.182;2024-01-15T13:07:27;7.63;;;3.67;;
75021;SDS011;63583;49.976;20.182;2024-01-15T13:09:54;14.40;;;8.32;;
75021;SDS011;63583;49.976;20.182;2024-01-15T13:12:20;7.90;;;3.90;;
75021;SDS011;63583;49.976;20.182;2024-01-15T13:14:49;14.05;;;7.60;;
75021;SDS011;63583;49.976;20.182;2024-01-15T13:17:16;8.15;;;4.20;;
75021;SDS011;63583;49.976;20.182;2024-01-15T13:19:42;7.43;;;3.53;;
75021;SDS011;63583;49.976;20.182;2024-01-15T13:22:07;7.68;;;3.58;;
75021;SDS011;63583;49.976;20.182;2024-01-15T13:24:35;7.30;;;3.42;;
75021;SDS011;63583;49.976;20.182;2024-01-15T13:27:02;7.80;;;4.43;;
75021;SDS011;63583;49.976;20.182;2024-01-15T13:29:30;4.82;;;2.40;;
75021;SDS011;63583;49.976;20.182;2024-01-15T13:31:58;6.38;;;3.05;;
75021;SDS011;63583;49.976;20.182;2024-01-15T13:34:26;6.60;;;3.65;;
75021;SDS011;63583;49.976;20.182;2024-01-15T13:36:53;7.50;;;3.22;;
75021;SDS011;63583;49.976;20.182;2024-01-15T13:39:20;9.23;;;3.75;;
75021;SDS011;63583;49.976;20.182;2024-01-15T13:41:46;6.97;;;3.72;;
75021;SDS011;63583;49.976;20.182;2024-01-15T13:44:14;7.68;;;4.05;;
75021;SDS011;63583;49.976;20.182;2024-01-15T13:46:40;8.40;;;3.58;;
75021;SDS011;63583;49.976;20.182;2024-01-15T13:49:08;9.18;;;3.83;;
75021;SDS011;63583;49.976;20.182;2024-01-15T13:51:37;9.05;;;4.28;;
75021;SDS011;63583;49.976;20.182;2024-01-15T13:54:03;8.90;;;4.60;;
75021;SDS011;63583;49.976;20.182;2024-01-15T13:56:31;11.32;;;5.85;;
75021;SDS011;63583;49.976;20.182;2024-01-15T13:59:01;11.90;;;6.18;;
75021;SDS011;63583;49.976;20.182;2024-01-15T14:01:27;18.13;;;10.75;;
75021;SDS011;63583;49.976;20.182;2024-01-15T14:03:53;16.20;;;7.43;;
75021;SDS011;63583;49.976;20.182;2024-01-15T14:06:19;19.85;;;10.90;;
75021;SDS011;63583;49.976;20.182;2024-01-15T14:08:45;12.32;;;7.88;;
75021;SDS011;63583;49.976;20.182;2024-01-15T14:11:11;11.52;;;6.63;;
75021;SDS011;63583;49.976;20.182;2024-01-15T14:13:37;9.55;;;6.03;;
75021;SDS011;63583;49.976;20.182;2024-01-15T14:16:02;14.73;;;6.65;;
75021;SDS011;63583;49.976;20.182;2024-01-15T14:18:28;14.85;;;6.90;;
75021;SDS011;63583;49.976;20.182;2024-01-15T14:20:54;8.10;;;3.95;;
75021;SDS011;63583;49.976;20.182;2024-01-15T14:23:20;8.48;;;4.63;;
75021;SDS011;63583;49.976;20.182;2024-01-15T14:25:46;10.52;;;5.50;;
75021;SDS011;63583;49.976;20.182;2024-01-15T14:28:12;9.65;;;4.00;;
75021;SDS011;63583;49.976;20.182;2024-01-15T14:30:38;8.18;;;4.55;;
75021;SDS011;63583;49.976;20.182;2024-01-15T14:33:04;7.57;;;3.92;;
75021;SDS011;63583;49.976;20.182;2024-01-15T14:35:29;8.52;;;4.25;;
75021;SDS011;63583;49.976;20.182;2024-01-15T14:37:55;9.30;;;3.72;;
75021;SDS011;63583;49.976;20.182;2024-01-15T14:40:24;9.55;;;4.55;;
75021;SDS011;63583;49.976;20.182;2024-01-15T14:42:51;12.07;;;4.72;;